Time;durP1;ratioP1;P1;durP2;ratioP2;P2;SDS_P1;SDS_P2;PMS_P1;PMS_P2;Temp;Humidity;BMP_temperature;BMP_pressure;BME280_temperature;BME280_humidity;BME280_pressure;Samples;Min_cycle;Max_cycle;Signal;HPM_P1;HPM_P2
2022/08/04 00:00:30;;;;;;;7.50;2.88;;;;;;;;;;5060715;28;20698;-76
2022/08/04 00:03:26;;;;;;;4.10;2.75;;;;;;;;;;5060347;28;20032;-74
2022/08/04 00:06:33;;;;;;;6.70;2.88;;;;;;;;;;5048346;28;20017;-76
2022/08/04 00:09:06;;;;;;;6.03;3.35;;;;;;;;;;5044265;28;20094;-75
2022/08/04 00:11:32;;;;;;;5.25;3.20;;;;;;;;;;5064319;28;20028;-76
2022/08/04 00:14:04;;;;;;;6.15;3.10;;;;;;;;;;5064707;28;20464;-76
2022/08/04 00:16:34;;;;;;;4.97;3.25;;;;;;;;;;5063146;28;20024;-76
2022/08/04 00:19:03;;;;;;;5.93;3.60;;;;;;;;;;5067721;28;20028;-75
2022/08/04 00:21:33;;;;;;;5.82;3.60;;;;;;;;;;5061773;28;20092;-75
2022/08/04 00:24:00;;;;;;;5.45;3.00;;;;;;;;;;5074453;28;20073;-75
2022/08/04 00:26:26;;;;;;;6.50;3.00;;;;;;;;;;5055823;28;20428;-76
2022/08/04 00:28:52;;;;;;;5.93;2.72;;;;;;;;;;5063232;28;20442;-75
2022/08/04 00:31:18;;;;;;;6.80;3.65;;;;;;;;;;5068772;28;20028;-75
2022/08/04 00:33:45;;;;;;;5.05;3.00;;;;;;;;;;5067032;28;20032;-76
2022/08/04 00:36:11;;;;;;;7.13;2.80;;;;;;;;;;5068118;28;20032;-75
2022/08/04 00:38:40;;;;;;;5.53;2.78;;;;;;;;;;5067353;28;20067;-74
2022/08/04 00:41:05;;;;;;;5.40;2.63;;;;;;;;;;5066062;28;20024;-75
2022/08/04 00:43:32;;;;;;;4.68;2.30;;;;;;;;;;5062171;28;20023;-75
2022/08/04 00:45:57;;;;;;;3.78;2.00;;;;;;;;;;5066591;28;20116;-74
2022/08/04 00:49:02;;;;;;;5.32;2.42;;;;;;;;;;5072889;28;20107;-75
2022/08/04 00:51:37;;;;;;;5.82;2.38;;;;;;;;;;5065054;28;20144;-76
2022/08/04 00:54:30;;;;;;;3.10;1.77;;;;;;;;;;5059325;28;20048;-74
2022/08/04 00:57:27;;;;;;;4.25;1.67;;;;;;;;;;5067325;28;20082;-74
2022/08/04 00:59:52;;;;;;;4.85;1.80;;;;;;;;;;5070732;28;20039;-74
2022/08/04 01:02:31;;;;;;;5.10;2.40;;;;;;;;;;5066626;28;20028;-75
2022/08/04 01:05:07;;;;;;;3.95;1.83;;;;;;;;;;5061658;28;20126;-76
2022/08/04 01:07:36;;;;;;;4.07;1.77;;;;;;;;;;5070845;28;20020;-75
2022/08/04 01:10:24;;;;;;;3.88;1.90;;;;;;;;;;5068678;28;20016;-76
2022/08/04 01:12:52;;;;;;;4.57;2.42;;;;;;;;;;5065694;28;20078;-74
2022/08/04 01:15:31;;;;;;;7.03;2.05;;;;;;;;;;5062830;28;21983;-74
2022/08/04 01:18:06;;;;;;;7.00;2.17;;;;;;;;;;5082327;28;20427;-76
2022/08/04 01:21:01;;;;;;;3.25;1.83;;;;;;;;;;5069644;28;20025;-73
2022/08/04 01:23:35;;;;;;;7.13;2.53;;;;;;;;;;5060054;28;20033;-74
2022/08/04 01:26:47;;;;;;;6.72;1.88;;;;;;;;;;5063836;28;20040;-76
2022/08/04 01:29:14;;;;;;;5.82;2.22;;;;;;;;;;5068540;28;20040;-74
2022/08/04 01:32:12;;;;;;;5.70;2.47;;;;;;;;;;5072652;28;20040;-75
2022/08/04 01:34:50;;;;;;;5.05;2.45;;;;;;;;;;5061665;28;20107;-74
2022/08/04 01:37:29;;;;;;;4.22;2.10;;;;;;;;;;5069049;28;20024;-75
2022/08/04 01:40:03;;;;;;;3.80;1.90;;;;;;;;;;5063546;28;20028;-74
2022/08/04 01:42:32;;;;;;;6.22;2.42;;;;;;;;;;5061997;28;20031;-74
2022/08/04 01:45:05;;;;;;;6.25;2.30;;;;;;;;;;5066611;28;20519;-75
2022/08/04 01:47:34;;;;;;;6.15;2.50;;;;;;;;;;5071700;28;20032;-74
2022/08/04 01:50:11;;;;;;;7.28;2.40;;;;;;;;;;5074023;28;20023;-75
2022/08/04 01:52:38;;;;;;;8.93;2.40;;;;;;;;;;5058373;28;20051;-75
2022/08/04 01:55:09;;;;;;;6.50;2.95;;;;;;;;;;5063640;28;20524;-75
2022/08/04 01:57:41;;;;;;;4.57;2.22;;;;;;;;;;5065131;28;20036;-75
2022/08/04 02:00:08;;;;;;;6.30;2.60;;;;;;;;;;5067041;28;20492;-76
2022/08/04 02:02:33;;;;;;;6.03;2.65;;;;;;;;;;5061872;28;20036;-76
2022/08/04 02:04:58;;;;;;;5.80;2.00;;;;;;;;;;5062586;28;20024;-76
2022/08/04 02:07:30;;;;;;;5.57;2.55;;;;;;;;;;5069259;28;20031;-76
2022/08/04 02:10:07;;;;;;;5.72;2.45;;;;;;;;;;5066871;28;20024;-76
2022/08/04 02:12:55;;;;;;;4.90;2.60;;;;;;;;;;5064215;28;20042;-76
2022/08/04 02:15:26;;;;;;;6.70;2.33;;;;;;;;;;5058964;28;20024;-76
2022/08/04 02:17:56;;;;;;;8.07;2.80;;;;;;;;;;5066447;28;20051;-76
2022/08/04 02:20:32;;;;;;;5.63;2.60;;;;;;;;;;5063017;28;20437;-74
2022/08/04 02:23:00;;;;;;;4.30;2.05;;;;;;;;;;5064142;28;20058;-74
2022/08/04 02:25:27;;;;;;;7.20;3.00;;;;;;;;;;5062849;28;20357;-74
2022/08/04 02:28:38;;;;;;;5.72;2.65;;;;;;;;;;5060009;28;20108;-76
2022/08/04 02:31:06;;;;;;;6.28;2.90;;;;;;;;;;5065838;28;20028;-74
2022/08/04 02:33:41;;;;;;;3.85;2.30;;;;;;;;;;5059798;28;20044;-75
2022/08/04 02:36:12;;;;;;;5.30;2.90;;;;;;;;;;5070093;28;20020;-74
2022/08/04 02:38:58;;;;;;;6.78;2.70;;;;;;;;;;5067733;28;20119;-75
2022/08/04 02:41:25;;;;;;;6.15;2.80;;;;;;;;;;5060961;28;20024;-76
2022/08/04 02:43:55;;;;;;;6.78;2.85;;;;;;;;;;5054903;28;20396;-75
2022/08/04 02:46:22;;;;;;;7.93;2.90;;;;;;;;;;5059188;28;20457;-74
2022/08/04 02:48:49;;;;;;;5.50;3.00;;;;;;;;;;5059913;28;20032;-76
2022/08/04 02:51:19;;;;;;;5.28;2.92;;;;;;;;;;5059639;28;20094;-75
2022/08/04 02:53:45;;;;;;;6.00;3.00;;;;;;;;;;5066019;28;20423;-74
2022/08/04 02:56:17;;;;;;;6.13;3.00;;;;;;;;;;5061951;28;20058;-76
2022/08/04 02:58:47;;;;;;;5.33;2.73;;;;;;;;;;5065243;28;20045;-75
2022/08/04 03:01:13;;;;;;;5.05;2.90;;;;;;;;;;5064647;28;20277;-76
2022/08/04 03:03:58;;;;;;;7.28;3.20;;;;;;;;;;5062534;28;20028;-75
2022/08/04 03:06:50;;;;;;;4.72;2.78;;;;;;;;;;5064494;28;20032;-76
2022/08/04 03:09:34;;;;;;;5.35;3.42;;;;;;;;;;5061842;28;20389;-76
2022/08/04 03:12:17;;;;;;;6.18;3.63;;;;;;;;;;5058937;28;20465;-76
2022/08/04 03:15:04;;;;;;;10.13;3.70;;;;;;;;;;5059573;28;20024;-76
2022/08/04 03:18:01;;;;;;;6.93;3.83;;;;;;;;;;5061847;28;20029;-76
2022/08/04 03:20:40;;;;;;;7.00;3.97;;;;;;;;;;5055838;28;20048;-75
2022/08/04 03:23:43;;;;;;;6.72;4.72;;;;;;;;;;5063049;28;20028;-76
2022/08/04 03:26:30;;;;;;;6.57;3.10;;;;;;;;;;5066948;28;20045;-76
2022/08/04 03:29:10;;;;;;;7.85;4.20;;;;;;;;;;5063546;28;20029;-76
2022/08/04 03:32:13;;;;;;;6.85;3.67;;;;;;;;;;5061991;28;20048;-76
2022/08/04 03:35:11;;;;;;;7.97;3.63;;;;;;;;;;5061402;28;20070;-75
2022/08/04 03:37:54;;;;;;;6.55;3.90;;;;;;;;;;5062278;28;20032;-75
2022/08/04 03:40:45;;;;;;;6.55;4.00;;;;;;;;;;5062459;28;20031;-76
2022/08/04 03:43:47;;;;;;;5.45;3.22;;;;;;;;;;5058981;28;20020;-76
2022/08/04 03:46:24;;;;;;;8.38;3.47;;;;;;;;;;5061797;28;20385;-74
2022/08/04 03:49:03;;;;;;;10.27;4.43;;;;;;;;;;5062509;28;20051;-75
2022/08/04 03:55:08;;;;;;;8.35;4.53;;;;;;;;;;5066470;28;20039;-76
2022/08/04 03:57:44;;;;;;;6.75;3.35;;;;;;;;;;5049993;28;20532;-76
2022/08/04 04:00:16;;;;;;;6.05;3.70;;;;;;;;;;5062899;28;20040;-75
2022/08/04 04:02:51;;;;;;;;;;;;;;;;;;5057384;28;20041;-75
2022/08/04 04:05:35;;;;;;;7.05;3.40;;;;;;;;;;5058514;28;19913;-76
2022/08/04 04:08:23;;;;;;;7.80;3.75;;;;;;;;;;5053723;28;20499;-76
2022/08/04 04:11:10;;;;;;;6.22;3.78;;;;;;;;;;5056887;28;20033;-76
2022/08/04 04:13:49;;;;;;;6.18;3.50;;;;;;;;;;5062695;28;20150;-74
2022/08/04 04:16:42;;;;;;;8.25;4.30;;;;;;;;;;5062666;28;20392;-75
2022/08/04 04:19:23;;;;;;;6.50;4.00;;;;;;;;;;5055127;28;20043;-74
2022/08/04 04:22:06;;;;;;;7.22;3.80;;;;;;;;;;5063973;28;20032;-76
2022/08/04 04:24:44;;;;;;;5.65;3.35;;;;;;;;;;5068673;28;20031;-75
2022/08/04 04:27:42;;;;;;;5.68;3.55;;;;;;;;;;5061796;28;20028;-76
2022/08/04 04:30:16;;;;;;;7.88;3.90;;;;;;;;;;5057787;28;20095;-75
2022/08/04 04:32:54;;;;;;;5.72;3.50;;;;;;;;;;5079297;28;20131;-76
2022/08/04 04:35:42;;;;;;;6.70;3.60;;;;;;;;;;5059876;28;20029;-76
2022/08/04 04:38:52;;;;;;;7.20;3.75;;;;;;;;;;5057880;28;20037;-76
2022/08/04 04:41:35;;;;;;;7.32;3.88;;;;;;;;;;4981093;28;20034;-74
2022/08/04 04:44:13;;;;;;;6.03;3.42;;;;;;;;;;5063309;28;20040;-74
2022/08/04 04:46:59;;;;;;;7.82;4.20;;;;;;;;;;5063785;28;20020;-76
2022/08/04 04:49:31;;;;;;;7.95;4.13;;;;;;;;;;5064366;28;20036;-75
2022/08/04 04:52:07;;;;;;;4.75;3.75;;;;;;;;;;5057824;28;20539;-75
2022/08/04 04:54:55;;;;;;;6.13;3.63;;;;;;;;;;5058786;28;20028;-75
2022/08/04 04:57:22;;;;;;;6.40;3.92;;;;;;;;;;5055881;28;20615;-74
2022/08/04 04:59:53;;;;;;;7.72;3.80;;;;;;;;;;5064292;28;20028;-76
2022/08/04 05:02:53;;;;;;;8.15;4.22;;;;;;;;;;5051625;28;20024;-75
2022/08/04 05:05:47;;;;;;;5.70;3.97;;;;;;;;;;5060040;28;20035;-76
2022/08/04 05:08:33;;;;;;;5.38;3.50;;;;;;;;;;5051937;28;20047;-76
2022/08/04 05:11:13;;;;;;;5.28;3.47;;;;;;;;;;5059584;28;20021;-75
2022/08/04 05:13:55;;;;;;;7.30;4.15;;;;;;;;;;5057276;28;20512;-75
2022/08/04 05:16:31;;;;;;;6.47;3.97;;;;;;;;;;5063877;28;20032;-74
2022/08/04 05:19:21;;;;;;;6.28;3.90;;;;;;;;;;5066179;28;20537;-75
2022/08/04 05:22:28;;;;;;;9.60;4.45;;;;;;;;;;5070215;28;20108;-75
2022/08/04 05:25:03;;;;;;;7.22;3.72;;;;;;;;;;5065165;28;20086;-76
2022/08/04 05:27:37;;;;;;;7.70;3.70;;;;;;;;;;5067683;28;20068;-75
2022/08/04 05:30:05;;;;;;;5.07;3.75;;;;;;;;;;5066559;28;20096;-75
2022/08/04 05:32:45;;;;;;;5.80;3.25;;;;;;;;;;5063710;28;20044;-76
2022/08/04 05:35:18;;;;;;;6.32;2.92;;;;;;;;;;5061129;28;20120;-75
2022/08/04 05:37:47;;;;;;;6.80;3.20;;;;;;;;;;5061766;28;20029;-76
2022/08/04 05:40:16;;;;;;;7.55;3.33;;;;;;;;;;5064136;28;20667;-74
2022/08/04 05:42:42;;;;;;;7.03;3.70;;;;;;;;;;5062523;28;20033;-76
2022/08/04 05:45:09;;;;;;;5.78;2.97;;;;;;;;;;5062900;28;20047;-75
2022/08/04 05:47:35;;;;;;;6.38;3.40;;;;;;;;;;5085180;28;20070;-74
2022/08/04 05:50:02;;;;;;;10.50;3.40;;;;;;;;;;5066437;28;20481;-74
2022/08/04 05:52:29;;;;;;;5.45;3.22;;;;;;;;;;5061118;28;20028;-76
2022/08/04 05:54:57;;;;;;;6.38;3.45;;;;;;;;;;5066090;28;20025;-76
2022/08/04 05:57:24;;;;;;;7.68;3.65;;;;;;;;;;5059665;28;20040;-75
2022/08/04 05:59:50;;;;;;;5.13;3.53;;;;;;;;;;5070068;28;20492;-76
2022/08/04 06:02:18;;;;;;;6.28;3.30;;;;;;;;;;5066356;28;20533;-74
2022/08/04 06:04:47;;;;;;;7.25;3.70;;;;;;;;;;5062000;28;20032;-74
2022/08/04 06:07:14;;;;;;;5.28;3.30;;;;;;;;;;5061520;28;20505;-76
2022/08/04 06:09:40;;;;;;;5.68;3.75;;;;;;;;;;5069893;28;20024;-76
2022/08/04 06:12:09;;;;;;;7.18;3.47;;;;;;;;;;5070492;28;20078;-75
2022/08/04 06:14:41;;;;;;;7.22;4.60;;;;;;;;;;5069203;28;20061;-76
2022/08/04 06:17:08;;;;;;;6.38;3.35;;;;;;;;;;5071564;28;20504;-76
2022/08/04 06:19:35;;;;;;;6.53;3.30;;;;;;;;;;5061477;28;20035;-74
2022/08/04 06:22:04;;;;;;;9.23;4.75;;;;;;;;;;5071075;28;20028;-75
2022/08/04 06:24:31;;;;;;;6.18;3.53;;;;;;;;;;5068339;28;20043;-79
2022/08/04 06:26:57;;;;;;;7.15;4.57;;;;;;;;;;5061064;28;20568;-74
2022/08/04 06:29:42;;;;;;;5.05;2.70;;;;;;;;;;5065033;28;20536;-78
2022/08/04 06:32:29;;;;;;;7.78;4.30;;;;;;;;;;5065882;28;20167;-79
2022/08/04 06:34:57;;;;;;;8.50;4.75;;;;;;;;;;5059827;28;20032;-78
2022/08/04 06:37:24;;;;;;;8.48;5.30;;;;;;;;;;5062786;28;20052;-75
2022/08/04 06:39:51;;;;;;;11.02;5.28;;;;;;;;;;5073870;28;20036;-79
2022/08/04 06:42:19;;;;;;;7.20;5.03;;;;;;;;;;5065865;28;20074;-79
2022/08/04 06:44:48;;;;;;;10.13;4.57;;;;;;;;;;5071687;28;20032;-75
2022/08/04 06:47:18;;;;;;;8.57;5.65;;;;;;;;;;5067457;28;20459;-74
2022/08/04 06:49:46;;;;;;;7.55;5.57;;;;;;;;;;5065537;28;20040;-75
2022/08/04 06:52:16;;;;;;;9.27;5.00;;;;;;;;;;5064541;28;20440;-77
2022/08/04 06:54:43;;;;;;;12.80;6.32;;;;;;;;;;5064312;28;21685;-77
2022/08/04 06:57:12;;;;;;;9.25;5.03;;;;;;;;;;5057252;28;20036;-76
2022/08/04 06:59:41;;;;;;;10.00;5.32;;;;;;;;;;5059003;28;20028;-75
2022/08/04 07:02:13;;;;;;;11.90;5.20;;;;;;;;;;5058665;28;20036;-75
2022/08/04 07:04:39;;;;;;;8.23;4.90;;;;;;;;;;5065727;28;20051;-76
2022/08/04 07:07:05;;;;;;;9.75;5.97;;;;;;;;;;5065521;28;21403;-75
2022/08/04 07:09:30;;;;;;;8.48;4.40;;;;;;;;;;5064716;28;20025;-74
2022/08/04 07:11:57;;;;;;;8.45;4.93;;;;;;;;;;5061767;28;20496;-76
2022/08/04 07:14:25;;;;;;;9.50;5.13;;;;;;;;;;5069550;28;20023;-76
2022/08/04 07:16:51;;;;;;;12.45;4.88;;;;;;;;;;5078268;28;20051;-75
2022/08/04 07:19:17;;;;;;;10.68;5.00;;;;;;;;;;5062906;28;20062;-76
2022/08/04 07:21:43;;;;;;;7.72;4.65;;;;;;;;;;5070454;28;20087;-76
2022/08/04 07:24:08;;;;;;;8.18;5.07;;;;;;;;;;5066965;28;20495;-76
2022/08/04 07:26:33;;;;;;;9.68;4.82;;;;;;;;;;5064441;28;20070;-76
2022/08/04 07:28:59;;;;;;;7.55;4.47;;;;;;;;;;5069789;28;20524;-76
2022/08/04 07:31:26;;;;;;;9.43;4.90;;;;;;;;;;5069216;28;20039;-76
2022/08/04 07:33:52;;;;;;;9.63;4.45;;;;;;;;;;5071871;28;20151;-76
2022/08/04 07:36:18;;;;;;;9.57;4.60;;;;;;;;;;5069388;28;20028;-76
2022/08/04 07:38:43;;;;;;;8.38;4.30;;;;;;;;;;5068993;28;20051;-73
2022/08/04 07:41:09;;;;;;;7.75;3.78;;;;;;;;;;5069143;28;20078;-76
2022/08/04 07:43:38;;;;;;;7.40;3.75;;;;;;;;;;5068059;28;20036;-76
2022/08/04 07:46:03;;;;;;;7.60;3.35;;;;;;;;;;5066647;28;20103;-76
2022/08/04 07:48:29;;;;;;;7.60;3.40;;;;;;;;;;5069756;28;20063;-76
2022/08/04 07:50:55;;;;;;;6.65;3.08;;;;;;;;;;5066570;28;20123;-73
2022/08/04 07:53:21;;;;;;;5.50;2.95;;;;;;;;;;5058438;28;20428;-76
2022/08/04 07:55:47;;;;;;;7.18;3.20;;;;;;;;;;5064386;28;20803;-76
2022/08/04 07:58:12;;;;;;;7.82;3.00;;;;;;;;;;5066548;28;20035;-73
2022/08/04 08:00:38;;;;;;;5.80;2.72;;;;;;;;;;5068895;28;20021;-76
2022/08/04 08:03:05;;;;;;;6.78;2.85;;;;;;;;;;5063262;28;20033;-73
2022/08/04 08:05:31;;;;;;;6.03;3.42;;;;;;;;;;5072236;28;20426;-76
2022/08/04 08:07:57;;;;;;;7.60;3.15;;;;;;;;;;5065197;28;20024;-73
2022/08/04 08:10:23;;;;;;;8.00;2.58;;;;;;;;;;5072177;28;20085;-76
2022/08/04 08:12:50;;;;;;;5.40;2.53;;;;;;;;;;5070465;28;20029;-76
2022/08/04 08:15:16;;;;;;;5.07;2.50;;;;;;;;;;5067720;28;20089;-76
2022/08/04 08:17:42;;;;;;;4.72;2.10;;;;;;;;;;5072394;28;20483;-76
2022/08/04 08:20:08;;;;;;;5.25;2.10;;;;;;;;;;5069323;28;20050;-74
2022/08/04 08:22:35;;;;;;;3.88;1.77;;;;;;;;;;5070413;28;20032;-76
2022/08/04 08:25:01;;;;;;;4.55;1.55;;;;;;;;;;5066201;28;20048;-76
2022/08/04 08:27:26;;;;;;;5.22;1.70;;;;;;;;;;5068851;28;20105;-76
2022/08/04 08:29:52;;;;;;;5.50;2.05;;;;;;;;;;5074312;28;20031;-76
2022/08/04 08:32:18;;;;;;;4.47;1.25;;;;;;;;;;5066904;28;20118;-73
2022/08/04 08:34:45;;;;;;;3.53;1.33;;;;;;;;;;5068916;28;20040;-74
2022/08/04 08:37:55;;;;;;;3.58;1.50;;;;;;;;;;5064091;28;20021;-77
2022/08/04 08:40:32;;;;;;;4.90;1.30;;;;;;;;;;5069249;28;20051;-76
2022/08/04 08:43:23;;;;;;;5.35;1.45;;;;;;;;;;5065712;28;20490;-75
2022/08/04 08:46:04;;;;;;;5.57;1.52;;;;;;;;;;5073211;28;20111;-76
2022/08/04 08:49:00;;;;;;;4.72;1.30;;;;;;;;;;5075906;28;20028;-77
2022/08/04 08:51:56;;;;;;;4.35;1.70;;;;;;;;;;5068308;28;20115;-76
2022/08/04 08:54:45;;;;;;;7.05;1.50;;;;;;;;;;5066939;28;20114;-77
2022/08/04 08:57:46;;;;;;;5.43;1.55;;;;;;;;;;5080286;28;20027;-74
2022/08/04 09:00:36;;;;;;;5.20;1.60;;;;;;;;;;5060556;28;20032;-76
2022/08/04 09:03:29;;;;;;;3.80;1.40;;;;;;;;;;5087157;28;20078;-76
2022/08/04 09:06:16;;;;;;;8.63;2.10;;;;;;;;;;5059118;28;20033;-74
2022/08/04 09:09:29;;;;;;;5.00;1.60;;;;;;;;;;5070155;28;20074;-74
2022/08/04 09:12:14;;;;;;;5.93;1.50;;;;;;;;;;5073901;28;20024;-74
2022/08/04 09:15:12;;;;;;;5.00;1.58;;;;;;;;;;5078372;28;20039;-77
2022/08/04 09:17:48;;;;;;;4.65;1.38;;;;;;;;;;5069451;28;20036;-74
2022/08/04 09:20:34;;;;;;;6.22;1.52;;;;;;;;;;5069610;28;20026;-75
2022/08/04 09:23:12;;;;;;;5.80;1.55;;;;;;;;;;5058813;28;20052;-76
2022/08/04 09:26:04;;;;;;;6.82;1.30;;;;;;;;;;5073832;28;20404;-76
2022/08/04 09:28:36;;;;;;;5.60;1.58;;;;;;;;;;5069570;28;20037;-76
2022/08/04 09:31:08;;;;;;;4.45;1.05;;;;;;;;;;5077539;28;20165;-77
2022/08/04 09:33:37;;;;;;;2.95;1.50;;;;;;;;;;5074710;28;20123;-76
2022/08/04 09:36:33;;;;;;;5.78;1.00;;;;;;;;;;5078505;28;20060;-74
2022/08/04 09:39:20;;;;;;;4.22;1.13;;;;;;;;;;5075816;28;20400;-77
2022/08/04 09:42:17;;;;;;;4.43;0.93;;;;;;;;;;5067666;28;20028;-76
2022/08/04 09:45:11;;;;;;;3.83;1.30;;;;;;;;;;5074242;28;20024;-74
2022/08/04 09:47:50;;;;;;;6.72;1.40;;;;;;;;;;5071554;28;20120;-75
2022/08/04 09:50:37;;;;;;;7.47;1.90;;;;;;;;;;5074910;28;20548;-76
2022/08/04 09:53:08;;;;;;;5.35;1.38;;;;;;;;;;5074520;28;20036;-76
2022/08/04 09:55:47;;;;;;;5.25;1.20;;;;;;;;;;5074336;28;20028;-76
2022/08/04 09:58:38;;;;;;;8.27;1.73;;;;;;;;;;5065994;28;20025;-74
2022/08/04 10:01:09;;;;;;;5.13;1.30;;;;;;;;;;5074394;28;20111;-77
2022/08/04 10:03:37;;;;;;;7.97;1.52;;;;;;;;;;5078370;28;20515;-75
2022/08/04 10:06:18;;;;;;;6.85;1.70;;;;;;;;;;5074836;28;20108;-76
2022/08/04 10:09:15;;;;;;;7.18;1.77;;;;;;;;;;5073419;28;20024;-74
2022/08/04 10:11:56;;;;;;;4.13;1.40;;;;;;;;;;5043859;28;20037;-73
2022/08/04 10:14:51;;;;;;;5.20;1.58;;;;;;;;;;5072990;28;20392;-77
2022/08/04 10:17:35;;;;;;;3.88;1.58;;;;;;;;;;5074980;28;20017;-76
2022/08/04 10:20:19;;;;;;;4.32;1.73;;;;;;;;;;5071443;28;20048;-74
2022/08/04 10:23:12;;;;;;;5.82;1.90;;;;;;;;;;5072260;28;20028;-74
2022/08/04 10:25:48;;;;;;;5.80;1.65;;;;;;;;;;5072806;28;20111;-74
2022/08/04 10:28:18;;;;;;;4.00;1.95;;;;;;;;;;5070015;28;20052;-76
2022/08/04 10:30:50;;;;;;;4.30;1.80;;;;;;;;;;5072176;28;20028;-77
2022/08/04 10:33:26;;;;;;;3.20;1.80;;;;;;;;;;5071278;28;20735;-76
2022/08/04 10:36:05;;;;;;;5.45;2.00;;;;;;;;;;5070049;28;20035;-76
2022/08/04 10:38:45;;;;;;;5.82;2.15;;;;;;;;;;5070768;28;20035;-77
2022/08/04 10:41:41;;;;;;;3.95;1.77;;;;;;;;;;5072451;28;20396;-77
2022/08/04 10:44:15;;;;;;;3.60;1.70;;;;;;;;;;5067845;28;20024;-77
2022/08/04 10:46:48;;;;;;;5.18;2.00;;;;;;;;;;5072957;28;20476;-77
2022/08/04 10:49:22;;;;;;;4.45;1.88;;;;;;;;;;5068373;28;20047;-78
2022/08/04 10:52:04;;;;;;;4.95;1.77;;;;;;;;;;5074410;28;20114;-76
2022/08/04 10:54:56;;;;;;;7.20;1.60;;;;;;;;;;5071632;28;20099;-76
2022/08/04 10:57:33;;;;;;;2.78;1.45;;;;;;;;;;5060943;28;20036;-78
2022/08/04 11:00:10;;;;;;;4.20;1.67;;;;;;;;;;5071137;28;20037;-78
2022/08/04 11:02:45;;;;;;;5.38;2.47;;;;;;;;;;5075816;28;20020;-78
2022/08/04 11:05:20;;;;;;;3.13;1.58;;;;;;;;;;5070453;28;20043;-79
2022/08/04 11:07:50;;;;;;;2.72;1.65;;;;;;;;;;5062842;28;20028;-79
2022/08/04 11:10:19;;;;;;;3.22;1.80;;;;;;;;;;5072554;28;20020;-78
2022/08/04 11:12:48;;;;;;;4.28;2.28;;;;;;;;;;5069742;28;20031;-79
2022/08/04 11:15:29;;;;;;;6.03;2.50;;;;;;;;;;5069238;28;20102;-79
2022/08/04 11:17:57;;;;;;;4.30;2.47;;;;;;;;;;5072148;28;20027;-79
2022/08/04 11:20:29;;;;;;;5.47;2.40;;;;;;;;;;5071426;28;20016;-76
2022/08/04 11:23:14;;;;;;;3.15;1.90;;;;;;;;;;5072184;28;20078;-79
2022/08/04 11:25:43;;;;;;;4.97;2.50;;;;;;;;;;5073164;28;20480;-77
2022/08/04 11:28:57;;;;;;;2.95;1.80;;;;;;;;;;5074537;28;20028;-77
2022/08/04 11:31:26;;;;;;;6.43;2.40;;;;;;;;;;5047972;28;20481;-79
2022/08/04 11:34:00;;;;;;;5.07;2.25;;;;;;;;;;5068389;28;20020;-76
2022/08/04 11:36:50;;;;;;;2.95;1.50;;;;;;;;;;5076760;28;20029;-79
2022/08/04 11:39:30;;;;;;;4.90;1.67;;;;;;;;;;5073913;28;20085;-77
2022/08/04 11:42:00;;;;;;;4.13;2.05;;;;;;;;;;5073668;28;20028;-76
2022/08/04 11:44:41;;;;;;;3.47;1.90;;;;;;;;;;5068523;28;20031;-76
2022/08/04 11:47:23;;;;;;;4.28;1.90;;;;;;;;;;5072236;28;20570;-77
2022/08/04 11:49:57;;;;;;;7.05;2.78;;;;;;;;;;5053607;28;20032;-79
2022/08/04 11:52:25;;;;;;;4.57;2.60;;;;;;;;;;5068395;28;20494;-76
2022/08/04 11:54:51;;;;;;;4.28;2.00;;;;;;;;;;5071288;28;20036;-78
2022/08/04 11:57:17;;;;;;;4.82;2.30;;;;;;;;;;5071668;28;20032;-78
2022/08/04 11:59:44;;;;;;;3.17;2.20;;;;;;;;;;5075851;28;20484;-78
2022/08/04 12:02:25;;;;;;;4.20;2.13;;;;;;;;;;5074634;28;20028;-78
2022/08/04 12:04:59;;;;;;;4.28;1.90;;;;;;;;;;5065675;28;20025;-78
2022/08/04 12:07:27;;;;;;;2.92;1.80;;;;;;;;;;5058517;28;20549;-78
2022/08/04 12:10:31;;;;;;;4.78;1.90;;;;;;;;;;5065376;28;20063;-76
2022/08/04 12:13:11;;;;;;;2.70;1.70;;;;;;;;;;5068946;28;20017;-78
2022/08/04 12:16:09;;;;;;;4.75;1.90;;;;;;;;;;5058879;28;20089;-77
2022/08/04 12:18:39;;;;;;;4.43;1.70;;;;;;;;;;5071270;28;20042;-78
2022/08/04 12:21:10;;;;;;;3.83;2.00;;;;;;;;;;5064125;28;20090;-77
2022/08/04 12:23:39;;;;;;;4.38;1.80;;;;;;;;;;5066682;28;20030;-78
2022/08/04 12:26:07;;;;;;;3.88;2.22;;;;;;;;;;5067602;28;20696;-76
2022/08/04 12:28:42;;;;;;;3.78;2.30;;;;;;;;;;5074843;28;20028;-76
2022/08/04 12:31:27;;;;;;;3.85;1.90;;;;;;;;;;5069294;28;20492;-76
2022/08/04 12:33:58;;;;;;;3.67;1.70;;;;;;;;;;5058866;28;20044;-78
2022/08/04 12:36:33;;;;;;;5.28;2.30;;;;;;;;;;5074533;28;20100;-79
2022/08/04 12:39:20;;;;;;;4.03;2.65;;;;;;;;;;5072575;28;20039;-79
2022/08/04 12:41:57;;;;;;;4.20;2.40;;;;;;;;;;5069229;28;20036;-77
2022/08/04 12:44:29;;;;;;;4.03;2.20;;;;;;;;;;5070644;28;20477;-77
2022/08/04 12:46:55;;;;;;;4.18;2.20;;;;;;;;;;5067253;28;20020;-77
2022/08/04 12:49:22;;;;;;;4.22;2.20;;;;;;;;;;5060394;28;20081;-78
2022/08/04 12:51:48;;;;;;;3.95;2.00;;;;;;;;;;5066992;28;20048;-76
2022/08/04 12:54:22;;;;;;;3.42;2.10;;;;;;;;;;5072322;28;20396;-78
2022/08/04 12:56:47;;;;;;;6.88;2.22;;;;;;;;;;5069454;28;20024;-76
2022/08/04 12:59:13;;;;;;;4.15;2.08;;;;;;;;;;5075997;28;20469;-76
2022/08/04 13:01:45;;;;;;;4.82;2.13;;;;;;;;;;5070287;28;20052;-77
2022/08/04 13:04:15;;;;;;;4.03;2.22;;;;;;;;;;5071999;28;20498;-76
2022/08/04 13:06:42;;;;;;;6.07;3.08;;;;;;;;;;5074848;28;20025;-76
2022/08/04 13:09:10;;;;;;;4.15;1.63;;;;;;;;;;5065164;28;20020;-77
2022/08/04 13:11:41;;;;;;;3.58;1.80;;;;;;;;;;5067808;28;20154;-76
2022/08/04 13:14:10;;;;;;;3.63;2.00;;;;;;;;;;5073078;28;20026;-76
2022/08/04 13:16:36;;;;;;;4.05;2.17;;;;;;;;;;5069528;28;20035;-76
2022/08/04 13:19:06;;;;;;;5.72;1.90;;;;;;;;;;5060392;28;20032;-76
2022/08/04 13:21:32;;;;;;;4.97;1.60;;;;;;;;;;5069691;28;20035;-76
2022/08/04 13:24:02;;;;;;;3.67;1.52;;;;;;;;;;5070630;28;20639;-75
2022/08/04 13:26:28;;;;;;;5.00;1.60;;;;;;;;;;5071717;28;20032;-78
2022/08/04 13:28:59;;;;;;;5.13;2.40;;;;;;;;;;5068983;28;20103;-78
2022/08/04 13:31:27;;;;;;;3.63;1.67;;;;;;;;;;5068805;28;20087;-75
2022/08/04 13:34:01;;;;;;;5.03;2.00;;;;;;;;;;5069024;28;20028;-77
2022/08/04 13:36:28;;;;;;;3.65;1.67;;;;;;;;;;5061060;28;20035;-77
2022/08/04 13:38:58;;;;;;;4.32;1.80;;;;;;;;;;5058549;28;20391;-77
2022/08/04 13:41:25;;;;;;;3.67;1.48;;;;;;;;;;5064561;28;20024;-75
2022/08/04 13:43:55;;;;;;;3.70;1.60;;;;;;;;;;5073994;28;20070;-75
2022/08/04 13:46:27;;;;;;;3.35;1.80;;;;;;;;;;5073012;28;20035;-76
2022/08/04 13:48:53;;;;;;;3.17;1.52;;;;;;;;;;5065571;28;20046;-77
2022/08/04 13:51:21;;;;;;;4.32;2.00;;;;;;;;;;5068982;28;20157;-77
2022/08/04 13:53:55;;;;;;;4.40;1.95;;;;;;;;;;5068339;28;20043;-77
2022/08/04 13:56:23;;;;;;;4.60;1.98;;;;;;;;;;5072037;28;20074;-77
2022/08/04 13:58:54;;;;;;;3.08;1.30;;;;;;;;;;5075925;28;20032;-77
2022/08/04 14:01:23;;;;;;;3.38;1.85;;;;;;;;;;5069380;28;20036;-75
2022/08/04 14:03:48;;;;;;;3.35;1.30;;;;;;;;;;5071974;28;20032;-77
2022/08/04 14:06:43;;;;;;;3.35;1.50;;;;;;;;;;5078892;28;20024;-77
2022/08/04 14:09:17;;;;;;;3.35;1.40;;;;;;;;;;5073654;28;20049;-77
2022/08/04 14:11:51;;;;;;;3.67;1.33;;;;;;;;;;5057220;28;20028;-75
2022/08/04 14:14:24;;;;;;;3.25;1.30;;;;;;;;;;5048461;28;20032;-77
2022/08/04 14:17:01;;;;;;;2.03;1.17;;;;;;;;;;5069247;28;20077;-77
2022/08/04 14:19:49;;;;;;;3.55;1.15;;;;;;;;;;5069187;28;20055;-77
2022/08/04 14:22:29;;;;;;;4.03;1.17;;;;;;;;;;5070130;28;20032;-76
2022/08/04 14:24:55;;;;;;;2.72;1.10;;;;;;;;;;5071006;28;20024;-77
2022/08/04 14:27:21;;;;;;;4.20;1.48;;;;;;;;;;5073763;28;20376;-75
2022/08/04 14:29:46;;;;;;;2.67;1.23;;;;;;;;;;5070677;28;20025;-77
2022/08/04 14:32:12;;;;;;;2.40;1.10;;;;;;;;;;5073378;28;20136;-77
2022/08/04 14:34:39;;;;;;;3.08;1.40;;;;;;;;;;5075863;28;20032;-76
2022/08/04 14:37:12;;;;;;;3.58;1.33;;;;;;;;;;5072493;28;20067;-76
2022/08/04 14:39:46;;;;;;;3.78;1.42;;;;;;;;;;5065889;28;20074;-77
2022/08/04 14:42:13;;;;;;;3.05;1.20;;;;;;;;;;5071694;28;20036;-77
2022/08/04 14:45:05;;;;;;;3.67;1.30;;;;;;;;;;5069083;28;20020;-76
2022/08/04 14:47:48;;;;;;;3.03;1.23;;;;;;;;;;5068526;28;20485;-74
2022/08/04 14:50:14;;;;;;;3.15;1.30;;;;;;;;;;5065105;28;20408;-77
2022/08/04 14:52:40;;;;;;;3.92;1.15;;;;;;;;;;5060684;28;20035;-76
2022/08/04 14:55:20;;;;;;;2.50;1.40;;;;;;;;;;5062837;28;20060;-76
2022/08/04 14:57:46;;;;;;;3.70;1.70;;;;;;;;;;5073621;28;20100;-77
2022/08/04 15:00:22;;;;;;;2.83;1.42;;;;;;;;;;5052583;28;20056;-76
2022/08/04 15:02:48;;;;;;;2.75;1.40;;;;;;;;;;5069716;28;20093;-77
2022/08/04 15:05:14;;;;;;;2.75;1.50;;;;;;;;;;5060790;28;20493;-77
2022/08/04 15:07:40;;;;;;;4.20;1.73;;;;;;;;;;5061583;28;20765;-75
2022/08/04 15:10:05;;;;;;;3.55;1.40;;;;;;;;;;5063357;28;20028;-77
2022/08/04 15:12:31;;;;;;;3.60;1.40;;;;;;;;;;5066956;28;20020;-76
2022/08/04 15:14:56;;;;;;;3.25;1.55;;;;;;;;;;5061574;28;20123;-77
2022/08/04 15:17:22;;;;;;;2.95;1.65;;;;;;;;;;5060677;28;20390;-77
2022/08/04 15:19:47;;;;;;;3.45;1.50;;;;;;;;;;5059898;28;20024;-74
2022/08/04 15:22:13;;;;;;;3.15;1.42;;;;;;;;;;5062972;28;20427;-76
2022/08/04 15:24:38;;;;;;;3.78;1.58;;;;;;;;;;5058979;28;20488;-76
2022/08/04 15:27:05;;;;;;;3.55;1.27;;;;;;;;;;5064816;28;20028;-77
2022/08/04 15:29:38;;;;;;;4.18;1.55;;;;;;;;;;5061245;28;20421;-77
2022/08/04 15:32:05;;;;;;;3.83;1.50;;;;;;;;;;5058055;28;20044;-77
2022/08/04 15:34:51;;;;;;;2.80;1.40;;;;;;;;;;5050078;28;20036;-76